Nearby METAR Reports

 

KVTA - Newark, Ohio, USA
Distance from station: SE 2mi, 3km
Updated: 02/28/2024 8:54pm
Clear
Clear
 Wind from NW
Wind: NW 8 mph , 13 km/h
Temperature: 28°F , -2°C
Wind Chill: 20°F , -7°C
Dew Point: 16°F , -9°C
Humidity: 59%
Barometer: 30.24 inHg , 1024 hPa
Clouds: Clear
Visibility: 10 miles , 16 km
2024/02/29 01:54 KVTA 290154Z AUTO 31007KT 10SM CLR M02/M09 A3024 RMK AO2 SLP243 T10221089
K4I3 - Mt Vernon/Knox, Ohio, USA
Distance from station: N 21mi, 33km
Updated: 02/28/2024 6:55pm
NOT Current
Partly cloudy
Partly cloudy
 Wind from W
Wind: W 17 mph , 28 km/h, Gust: 30 mph , 48 km/h
Temperature: 25°F , -4°C
Wind Chill: 12°F , -11°C
Dew Point: 18°F , -8°C
Humidity: 74%
Barometer: 30.16 inHg , 1021.3 hPa
Clouds: Partly cloudy
Visibility: 10 miles , 16 km
Cloud details: Partly cloudy 2900 ft
2024/02/28 23:55 K4I3 282355Z AUTO 28015G26KT 10SM SCT029 M04/M08 A3016 RMK AO2
 
KCMH - Columbus, Ohio, USA
Distance from station: W 21mi, 34km
Updated: 02/28/2024 8:51pm
Few Clouds
Few Clouds
 Wind from WNW
Wind: WNW 10 mph , 17 km/h
Temperature: 28°F , -2°C
Wind Chill: 19°F , -7°C
Dew Point: 18°F , -8°C
Humidity: 64%
Barometer: 30.25 inHg , 1024.4 hPa
Clouds: Few Clouds
Visibility: 10 miles , 16 km
Cloud details: Few Clouds 3700 ft
2024/02/29 01:51 KCMH 290151Z 30009KT 10SM FEW037 M02/M08 A3025 RMK AO2 SLP249 T10221078
KLHQ - Lancaster, Ohio, USA
Distance from station: SSW 22mi, 36km
Updated: 02/28/2024 8:53pm
Partly cloudy
Partly cloudy
 Wind from WNW
Wind: WNW 9 mph , 15 km/h
Temperature: 30°F , -1°C
Wind Chill: 22°F , -6°C
Dew Point: 19°F , -7°C
Humidity: 64%
Barometer: 30.25 inHg , 1024.4 hPa
Clouds: Partly cloudy
Visibility: 10 miles , 16 km
Cloud details: Partly cloudy 3700 ft
2024/02/29 01:53 KLHQ 290153Z AUTO 30008KT 10SM SCT037 M01/M07 A3025 RMK AO2 SLP248 T10111067
 
KLCK - Rickenbacker Ang, Ohio, USA
Distance from station: SW 27mi, 44km
Updated: 02/28/2024 8:55pm
Overcast
Overcast
 Wind from WNW
Wind: WNW 6 mph , 9 km/h
Temperature: 30°F , -1°C
Wind Chill: 24°F , -4°C
Dew Point: 21°F , -6°C
Humidity: 69%
Barometer: 30.26 inHg , 1024.7 hPa
Clouds: Overcast
Visibility: 10 miles , 16 km
Cloud details: Overcast 4000 ft
2024/02/29 01:55 KLCK 290155Z AUTO 29005KT 10SM OVC040 M01/M06 A3026 RMK AO2 T10071061
KOSU - Columbus/St Univ, Ohio, USA
Distance from station: W 32mi, 51km
Updated: 02/28/2024 8:53pm
Clear
Clear
 Wind from WNW
Wind: WNW 8 mph , 13 km/h
Temperature: 28°F , -2°C
Wind Chill: 20°F , -7°C
Dew Point: 18°F , -8°C
Humidity: 64%
Barometer: 30.25 inHg , 1024.4 hPa
Clouds: Clear
Visibility: 10 miles , 16 km
2024/02/29 01:53 KOSU 290153Z 29007KT 10SM CLR M02/M08 A3025 RMK AO2 SLP250 T10221083
 
KZZV - Zanesville, Ohio, USA
Distance from station: E 32mi, 51km
Updated: 02/28/2024 8:53pm
Clear
Clear
 Wind from W
Wind: W 12 mph , 19 km/h, Gust: 18 mph , 30 km/h
Temperature: 28°F , -2°C
Wind Chill: 18°F , -8°C
Dew Point: 18°F , -8°C
Humidity: 64%
Barometer: 30.22 inHg , 1023.4 hPa
Clouds: Clear
Visibility: 10 miles , 16 km
2024/02/29 01:53 KZZV 290153Z AUTO 28010G16KT 10SM CLR M02/M08 A3022 RMK AO2 SLP238 T10171083
KTZR - Columbus/Bolton, Ohio, USA
Distance from station: WSW 36mi, 57km
Updated: 02/28/2024 9:35pm
Clear
Clear
 Wind from NNW
Wind: NNW 6 mph , 9 km/h
Temperature: 27°F , -3°C
Wind Chill: 20°F , -7°C
Dew Point: 19°F , -7°C
Humidity: 74%
Barometer: 30.27 inHg , 1025.1 hPa
Clouds: Clear
Visibility: 10 miles , 16 km
2024/02/29 02:35 KTZR 290235Z AUTO 34005KT 10SM CLR M03/M07 A3027 RMK AO2 T10351070
 
KDLZ - Delaware, Ohio, USA
Distance from station: WNW 37mi, 60km
Updated: 02/28/2024 9:35pm
Clear
Clear
 Wind from WNW
Wind: WNW 10 mph , 17 km/h
Temperature: 23°F , -5°C
Wind Chill: 13°F , -11°C
Dew Point: 16°F , -9°C
Humidity: 74%
Barometer: 30.27 inHg , 1025.1 hPa
Clouds: Clear
Visibility: 10 miles , 16 km
2024/02/29 02:35 KDLZ 290235Z AUTO 29009KT 10SM CLR M05/M09 A3027 RMK AO2
KMRT - Marysville, Ohio, USA
Distance from station: WNW 47mi, 76km
Updated: 02/28/2024 9:35pm
Clear
Clear
 Wind from NW
Wind: NW 7 mph , 11 km/h
Temperature: 25°F , -4°C
Wind Chill: 17°F , -8°C
Dew Point: -17°F , -27°C
Humidity: 15%
Barometer: 30.26 inHg , 1024.7 hPa
Clouds: Clear
Visibility: 10 miles , 16 km
2024/02/29 02:35 KMRT 290235Z AUTO 32006KT 10SM CLR M04/M27 A3026 RMK AO2 T10411271
 
KMNN - Marion, Ohio, USA
Distance from station: NW 50mi, 81km
Updated: 02/28/2024 8:53pm
Clear
Clear
 Wind from WNW
Wind: WNW 12 mph , 19 km/h
Temperature: 25°F , -4°C
Wind Chill: 14°F , -10°C
Dew Point: 16°F , -9°C
Humidity: 69%
Barometer: 30.23 inHg , 1023.7 hPa
Clouds: Clear
Visibility: 10 miles , 16 km
2024/02/29 01:53 KMNN 290153Z AUTO 30010KT 10SM CLR M04/M09 A3023 RMK AO2 SLP248 T10441094